Time;durP1;ratioP1;P1;durP2;ratioP2;P2;SDS_P1;SDS_P2;PMS_P1;PMS_P2;Temp;Humidity;BMP_temperature;BMP_pressure;BME280_temperature;BME280_humidity;BME280_pressure;Samples;Min_cycle;Max_cycle;Signal;HPM_P1;HPM_P2
2021/01/11 00:01:09;;;;;;;29.50;12.73;;;;;;;;;;4899443;29;20033;-77
2021/01/11 00:03:35;;;;;;;23.98;9.73;;;;;;;;;;4899931;29;20044;-77
2021/01/11 00:06:01;;;;;;;27.42;10.63;;;;;;;;;;4900240;29;20032;-77
2021/01/11 00:08:27;;;;;;;27.85;10.23;;;;;;;;;;4898535;29;20029;-77
2021/01/11 00:10:54;;;;;;;31.88;10.98;;;;;;;;;;4900170;29;20444;-77
2021/01/11 00:13:20;;;;;;;21.33;8.43;;;;;;;;;;4898897;29;20467;-76
2021/01/11 00:15:46;;;;;;;22.58;9.13;;;;;;;;;;4899641;29;20107;-76
2021/01/11 00:18:13;;;;;;;26.75;11.18;;;;;;;;;;4899819;29;20033;-77
2021/01/11 00:20:39;;;;;;;25.63;10.13;;;;;;;;;;4898618;29;20035;-76
2021/01/11 00:23:05;;;;;;;27.90;10.35;;;;;;;;;;4900655;29;20128;-76
2021/01/11 00:25:32;;;;;;;23.30;8.98;;;;;;;;;;4899799;29;20057;-76
2021/01/11 00:27:58;;;;;;;25.17;11.23;;;;;;;;;;4899370;29;20033;-76
2021/01/11 00:30:24;;;;;;;18.55;8.15;;;;;;;;;;4898063;29;20115;-77
2021/01/11 00:32:51;;;;;;;25.27;9.40;;;;;;;;;;4899486;29;20067;-76
2021/01/11 00:35:17;;;;;;;24.98;9.35;;;;;;;;;;4899416;29;20067;-76
2021/01/11 00:37:43;;;;;;;31.52;10.70;;;;;;;;;;4899327;29;20116;-77
2021/01/11 00:40:10;;;;;;;21.20;9.32;;;;;;;;;;4899329;29;20035;-76
2021/01/11 00:42:37;;;;;;;23.42;8.13;;;;;;;;;;4899018;29;20060;-77
2021/01/11 00:45:07;;;;;;;19.33;7.45;;;;;;;;;;4897780;29;20060;-77
2021/01/11 00:47:40;;;;;;;19.48;8.27;;;;;;;;;;4899992;29;20056;-76
2021/01/11 00:50:07;;;;;;;23.27;7.13;;;;;;;;;;4898032;29;20032;-76
2021/01/11 00:52:39;;;;;;;26.42;7.75;;;;;;;;;;4899092;29;20112;-76
2021/01/11 00:55:06;;;;;;;18.20;7.28;;;;;;;;;;4897857;29;20430;-76
2021/01/11 00:57:33;;;;;;;16.38;6.88;;;;;;;;;;4898769;29;20029;-77
2021/01/11 00:59:59;;;;;;;18.10;6.60;;;;;;;;;;4899384;29;20116;-76
2021/01/11 01:02:26;;;;;;;13.43;6.03;;;;;;;;;;4898897;29;20088;-77
2021/01/11 01:04:52;;;;;;;20.55;7.28;;;;;;;;;;4898862;29;20044;-76
2021/01/11 01:07:18;;;;;;;21.67;8.07;;;;;;;;;;4898651;29;20044;-76
2021/01/11 01:09:44;;;;;;;19.83;7.53;;;;;;;;;;4898874;29;20032;-76
2021/01/11 01:12:11;;;;;;;21.10;7.90;;;;;;;;;;4897858;29;20088;-77
2021/01/11 01:14:37;;;;;;;20.25;7.00;;;;;;;;;;4898846;29;20107;-77
2021/01/11 01:17:03;;;;;;;12.30;5.13;;;;;;;;;;4898574;29;20390;-77
2021/01/11 01:19:30;;;;;;;18.63;6.32;;;;;;;;;;4898615;29;20036;-77
2021/01/11 01:21:56;;;;;;;16.50;6.32;;;;;;;;;;4898764;29;20459;-77
2021/01/11 01:24:22;;;;;;;19.60;8.40;;;;;;;;;;4898498;29;20459;-77
2021/01/11 01:26:49;;;;;;;15.52;5.95;;;;;;;;;;4898484;29;20029;-77
2021/01/11 01:29:15;;;;;;;18.60;6.43;;;;;;;;;;4898603;29;20055;-77
2021/01/11 01:31:41;;;;;;;19.05;6.88;;;;;;;;;;4898573;29;20032;-77
2021/01/11 01:34:08;;;;;;;25.92;7.75;;;;;;;;;;4897081;29;20036;-76
2021/01/11 01:36:34;;;;;;;15.32;7.15;;;;;;;;;;4898154;29;20029;-77
2021/01/11 01:39:00;;;;;;;18.05;7.20;;;;;;;;;;4898392;29;20037;-76
2021/01/11 01:41:26;;;;;;;22.48;7.88;;;;;;;;;;4898482;29;20430;-76
2021/01/11 01:43:52;;;;;;;22.25;7.30;;;;;;;;;;4896735;29;20063;-75
2021/01/11 01:46:21;;;;;;;20.55;7.35;;;;;;;;;;4898404;29;20033;-73
2021/01/11 01:48:48;;;;;;;30.35;11.30;;;;;;;;;;4897990;29;20037;-74
2021/01/11 01:51:14;;;;;;;25.30;9.05;;;;;;;;;;4898127;29;20084;-75
2021/01/11 01:53:40;;;;;;;36.25;11.38;;;;;;;;;;4896921;29;20028;-76
2021/01/11 01:56:06;;;;;;;21.30;9.50;;;;;;;;;;4897967;29;20028;-76
2021/01/11 01:58:35;;;;;;;26.65;10.52;;;;;;;;;;4898160;29;20379;-76
2021/01/11 02:01:01;;;;;;;34.47;12.35;;;;;;;;;;4897881;29;20029;-77
2021/01/11 02:03:28;;;;;;;41.03;11.55;;;;;;;;;;4897862;29;20486;-76
2021/01/11 02:05:54;;;;;;;23.50;9.88;;;;;;;;;;4897840;29;20491;-77
2021/01/11 02:08:23;;;;;;;38.33;11.38;;;;;;;;;;4897905;29;20032;-76
2021/01/11 02:11:10;;;;;;;34.65;11.57;;;;;;;;;;4896450;29;20042;-76
2021/01/11 02:13:39;;;;;;;28.67;10.88;;;;;;;;;;4896619;29;20080;-77
2021/01/11 02:16:24;;;;;;;25.30;8.63;;;;;;;;;;4897792;29;20017;-76
2021/01/11 02:19:01;;;;;;;18.10;7.28;;;;;;;;;;4896619;29;20389;-76
2021/01/11 02:21:45;;;;;;;21.40;8.82;;;;;;;;;;4897741;29;20044;-76
2021/01/11 02:24:22;;;;;;;14.45;6.65;;;;;;;;;;4899737;29;20033;-76
2021/01/11 02:27:02;;;;;;;19.77;7.63;;;;;;;;;;4900725;29;20047;-77
2021/01/11 02:29:34;;;;;;;14.88;7.43;;;;;;;;;;4900509;29;20036;-76
2021/01/11 02:32:01;;;;;;;16.40;7.18;;;;;;;;;;4901647;29;20107;-77
2021/01/11 02:34:28;;;;;;;21.75;8.05;;;;;;;;;;4901492;29;20061;-77
2021/01/11 02:36:55;;;;;;;26.02;10.45;;;;;;;;;;4901578;29;20036;-77
2021/01/11 02:39:22;;;;;;;21.63;8.20;;;;;;;;;;4901467;29;20029;-77
2021/01/11 02:41:48;;;;;;;21.73;7.85;;;;;;;;;;4901296;29;20123;-77
2021/01/11 02:44:14;;;;;;;26.23;8.13;;;;;;;;;;4901602;29;20032;-77
2021/01/11 02:46:41;;;;;;;23.02;7.32;;;;;;;;;;4900167;29;20028;-76
2021/01/11 02:49:12;;;;;;;20.88;7.82;;;;;;;;;;4901298;29;20064;-75
2021/01/11 02:51:42;;;;;;;32.88;9.80;;;;;;;;;;4899705;29;20420;-76
2021/01/11 02:54:08;;;;;;;24.08;8.93;;;;;;;;;;4899964;29;20092;-76
2021/01/11 02:56:39;;;;;;;27.15;8.23;;;;;;;;;;4899901;29;20390;-75
2021/01/11 02:59:05;;;;;;;21.38;7.85;;;;;;;;;;4899884;29;20067;-75
2021/01/11 03:01:35;;;;;;;28.75;8.60;;;;;;;;;;4899680;29;20501;-75
2021/01/11 03:04:02;;;;;;;18.98;8.23;;;;;;;;;;4899680;29;20494;-76
2021/01/11 03:06:32;;;;;;;26.60;8.77;;;;;;;;;;4899729;29;20085;-76
2021/01/11 03:09:01;;;;;;;22.08;8.65;;;;;;;;;;4901041;29;20064;-76
2021/01/11 03:11:28;;;;;;;16.55;7.32;;;;;;;;;;4899612;29;20043;-77
2021/01/11 03:13:54;;;;;;;25.60;8.77;;;;;;;;;;4901203;29;20104;-77
2021/01/11 03:16:20;;;;;;;20.23;7.95;;;;;;;;;;4901304;29;20191;-77
2021/01/11 03:18:47;;;;;;;19.85;7.57;;;;;;;;;;4901128;29;20486;-77
2021/01/11 03:21:13;;;;;;;25.52;8.48;;;;;;;;;;4900701;29;20390;-77
2021/01/11 03:23:39;;;;;;;19.45;6.90;;;;;;;;;;4900429;29;20041;-77
2021/01/11 03:26:05;;;;;;;22.02;6.80;;;;;;;;;;4900773;29;20029;-77
2021/01/11 03:28:32;;;;;;;20.75;7.13;;;;;;;;;;4900599;29;20064;-76
2021/01/11 03:30:58;;;;;;;17.88;5.57;;;;;;;;;;4900858;29;20028;-77
2021/01/11 03:33:24;;;;;;;19.48;7.25;;;;;;;;;;4900831;29;20095;-76
2021/01/11 03:35:50;;;;;;;23.20;7.30;;;;;;;;;;4897949;29;20036;-77
2021/01/11 03:38:17;;;;;;;22.58;8.07;;;;;;;;;;4900479;29;20040;-77
2021/01/11 03:40:43;;;;;;;23.70;7.97;;;;;;;;;;4900538;29;20386;-77
2021/01/11 03:43:09;;;;;;;30.58;8.07;;;;;;;;;;4900131;29;20110;-77
2021/01/11 03:45:36;;;;;;;18.60;6.80;;;;;;;;;;4900146;29;20506;-76
2021/01/11 03:48:02;;;;;;;18.50;6.93;;;;;;;;;;4900271;29;20029;-77
2021/01/11 03:50:28;;;;;;;18.80;6.35;;;;;;;;;;4900286;29;20405;-74
2021/01/11 03:52:54;;;;;;;15.45;6.28;;;;;;;;;;4901024;29;20033;-77
2021/01/11 03:55:21;;;;;;;17.55;5.18;;;;;;;;;;4900177;29;20474;-77
2021/01/11 03:57:47;;;;;;;18.55;7.68;;;;;;;;;;4900126;29;20025;-76
2021/01/11 04:00:13;;;;;;;15.65;7.13;;;;;;;;;;4898943;29;20396;-74
2021/01/11 04:02:39;;;;;;;16.20;6.95;;;;;;;;;;4898682;29;20036;-76
2021/01/11 04:05:06;;;;;;;16.10;5.65;;;;;;;;;;4898747;29;20024;-76
2021/01/11 04:07:32;;;;;;;18.15;6.45;;;;;;;;;;4898618;29;20036;-76
2021/01/11 04:09:58;;;;;;;23.40;6.20;;;;;;;;;;4898757;29;20061;-77
2021/01/11 04:12:24;;;;;;;24.17;5.40;;;;;;;;;;4900002;29;20103;-76
2021/01/11 04:14:51;;;;;;;14.23;5.75;;;;;;;;;;4899857;29;20553;-76
2021/01/11 04:17:17;;;;;;;18.45;5.97;;;;;;;;;;4899679;29;20059;-76
2021/01/11 04:19:43;;;;;;;15.60;5.82;;;;;;;;;;4899724;29;20052;-76
2021/01/11 04:22:10;;;;;;;15.05;5.22;;;;;;;;;;4899686;29;20091;-76
2021/01/11 04:24:36;;;;;;;19.15;6.97;;;;;;;;;;4899864;29;20048;-76
2021/01/11 04:27:02;;;;;;;14.23;5.53;;;;;;;;;;4898393;29;20029;-76
2021/01/11 04:29:29;;;;;;;13.27;5.68;;;;;;;;;;4899390;29;20553;-77
2021/01/11 04:31:55;;;;;;;17.10;7.47;;;;;;;;;;4899546;29;20036;-76
2021/01/11 04:34:21;;;;;;;15.35;5.03;;;;;;;;;;4898165;29;20084;-77
2021/01/11 04:36:47;;;;;;;18.45;6.40;;;;;;;;;;4898210;29;20088;-74
2021/01/11 04:39:13;;;;;;;16.27;5.05;;;;;;;;;;4898148;29;20479;-76
2021/01/11 04:41:41;;;;;;;14.25;6.50;;;;;;;;;;4897679;29;20052;-77
2021/01/11 04:44:08;;;;;;;14.52;5.53;;;;;;;;;;4898145;29;20040;-78
2021/01/11 04:46:34;;;;;;;14.55;5.95;;;;;;;;;;4897757;29;20028;-75
2021/01/11 04:49:00;;;;;;;13.23;6.28;;;;;;;;;;4897985;29;20039;-77
2021/01/11 04:51:26;;;;;;;21.02;5.43;;;;;;;;;;4899373;29;20033;-76
2021/01/11 04:53:53;;;;;;;17.38;6.00;;;;;;;;;;4897859;29;20032;-76
2021/01/11 04:56:19;;;;;;;20.05;7.55;;;;;;;;;;4898747;29;20036;-77
2021/01/11 04:58:56;;;;;;;14.57;6.03;;;;;;;;;;4897828;29;20036;-76
2021/01/11 05:01:26;;;;;;;18.10;6.22;;;;;;;;;;4897815;29;20036;-76
2021/01/11 05:03:57;;;;;;;12.88;5.78;;;;;;;;;;4897498;29;20033;-76
2021/01/11 05:06:24;;;;;;;17.50;6.85;;;;;;;;;;4897739;29;20029;-77
2021/01/11 05:08:50;;;;;;;15.07;6.30;;;;;;;;;;4897680;29;20120;-76
2021/01/11 05:11:17;;;;;;;23.23;8.48;;;;;;;;;;4898825;29;20024;-76
2021/01/11 05:13:43;;;;;;;17.77;6.10;;;;;;;;;;4897539;29;20028;-76
2021/01/11 05:16:11;;;;;;;25.42;6.72;;;;;;;;;;4898835;29;20039;-77
2021/01/11 05:18:37;;;;;;;16.85;7.75;;;;;;;;;;4897448;29;20055;-77
2021/01/11 05:21:03;;;;;;;21.02;7.07;;;;;;;;;;4898685;29;20061;-77
2021/01/11 05:23:34;;;;;;;20.38;8.77;;;;;;;;;;4898600;29;20092;-76
2021/01/11 05:26:11;;;;;;;25.95;7.38;;;;;;;;;;4898740;29;20060;-76
2021/01/11 05:28:37;;;;;;;22.77;7.40;;;;;;;;;;4897218;29;20033;-77
2021/01/11 05:31:04;;;;;;;22.60;6.75;;;;;;;;;;4898648;29;20036;-75
2021/01/11 05:33:30;;;;;;;23.17;8.48;;;;;;;;;;4898918;29;20120;-76
2021/01/11 05:36:07;;;;;;;23.60;7.85;;;;;;;;;;4897435;29;20059;-76
2021/01/11 05:38:37;;;;;;;22.35;9.10;;;;;;;;;;4897295;29;20060;-75
2021/01/11 05:41:19;;;;;;;16.85;6.97;;;;;;;;;;4897338;29;20029;-77
2021/01/11 05:44:08;;;;;;;23.38;7.97;;;;;;;;;;4896974;29;20217;-77
2021/01/11 05:46:35;;;;;;;19.67;8.00;;;;;;;;;;4897963;29;20037;-77
2021/01/11 05:49:03;;;;;;;26.05;7.88;;;;;;;;;;4898803;29;20032;-76
2021/01/11 05:51:32;;;;;;;21.25;7.55;;;;;;;;;;4898378;29;20028;-77
2021/01/11 05:53:59;;;;;;;24.17;8.35;;;;;;;;;;4897190;29;20402;-76
2021/01/11 05:56:25;;;;;;;25.45;8.02;;;;;;;;;;4898313;29;20036;-75
2021/01/11 05:59:03;;;;;;;22.77;7.70;;;;;;;;;;4897874;29;20574;-76
2021/01/11 06:01:31;;;;;;;29.23;9.80;;;;;;;;;;4897193;29;20032;-76
2021/01/11 06:03:57;;;;;;;26.92;7.95;;;;;;;;;;4898296;29;20048;-76
2021/01/11 06:06:24;;;;;;;19.70;7.93;;;;;;;;;;4898720;29;20033;-77
2021/01/11 06:08:54;;;;;;;24.13;9.45;;;;;;;;;;4897531;29;20086;-77
2021/01/11 06:11:25;;;;;;;22.10;8.73;;;;;;;;;;4897447;29;20470;-76
2021/01/11 06:13:52;;;;;;;31.10;9.05;;;;;;;;;;4897598;29;20511;-76
2021/01/11 06:16:19;;;;;;;25.23;10.02;;;;;;;;;;4896815;29;20033;-76
2021/01/11 06:18:47;;;;;;;28.23;9.70;;;;;;;;;;4896708;29;20064;-76
2021/01/11 06:21:14;;;;;;;25.40;8.55;;;;;;;;;;4896414;29;20502;-77
2021/01/11 06:23:40;;;;;;;27.38;9.02;;;;;;;;;;4897793;29;20040;-76
2021/01/11 06:26:25;;;;;;;26.25;9.35;;;;;;;;;;4898198;29;20360;-76
2021/01/11 06:28:52;;;;;;;20.08;7.45;;;;;;;;;;4896512;29;20476;-76
2021/01/11 06:31:18;;;;;;;21.80;8.93;;;;;;;;;;4896579;29;20048;-77
2021/01/11 06:33:45;;;;;;;25.52;8.15;;;;;;;;;;4896221;29;20490;-79
2021/01/11 06:36:18;;;;;;;19.65;8.70;;;;;;;;;;4897187;29;20478;-77
2021/01/11 06:38:45;;;;;;;22.88;8.13;;;;;;;;;;4895810;29;20036;-79
2021/01/11 06:41:12;;;;;;;25.65;8.43;;;;;;;;;;4896475;29;20037;-78
2021/01/11 06:43:38;;;;;;;28.42;8.10;;;;;;;;;;4896081;29;20053;-79
2021/01/11 06:46:05;;;;;;;19.75;7.78;;;;;;;;;;4896196;29;20036;-78
2021/01/11 06:48:34;;;;;;;34.03;9.82;;;;;;;;;;4898027;29;20028;-77
2021/01/11 06:51:19;;;;;;;24.92;9.07;;;;;;;;;;4896431;29;20393;-77
2021/01/11 06:53:45;;;;;;;16.90;6.78;;;;;;;;;;4898791;29;20124;-78
2021/01/11 06:56:12;;;;;;;25.60;10.32;;;;;;;;;;4920323;29;20075;-77
2021/01/11 06:58:41;;;;;;;22.73;7.45;;;;;;;;;;4913966;29;20077;-79
2021/01/11 07:01:08;;;;;;;22.85;8.52;;;;;;;;;;4914841;29;20032;-80
2021/01/11 07:03:45;;;;;;;27.98;8.48;;;;;;;;;;4916097;29;20055;-79
2021/01/11 07:06:29;;;;;;;21.58;8.95;;;;;;;;;;4911859;29;20032;-80
2021/01/11 07:09:05;;;;;;;22.33;8.32;;;;;;;;;;4897183;29;20156;-85
2021/01/11 07:11:35;;;;;;;22.60;9.40;;;;;;;;;;4900057;29;20084;-81
2021/01/11 07:14:02;;;;;;;28.50;8.23;;;;;;;;;;4899925;29;20033;-80
2021/01/11 07:16:41;;;;;;;18.67;7.50;;;;;;;;;;4899897;29;20081;-81
2021/01/11 07:19:08;;;;;;;21.35;7.72;;;;;;;;;;4918373;29;20043;-81
2021/01/11 07:21:35;;;;;;;24.15;8.35;;;;;;;;;;4918473;29;20032;-81
2021/01/11 07:24:03;;;;;;;30.15;9.57;;;;;;;;;;4918536;29;20038;-81
2021/01/11 07:26:30;;;;;;;23.48;9.68;;;;;;;;;;4918232;29;20032;-81
2021/01/11 07:28:56;;;;;;;21.50;8.35;;;;;;;;;;4918185;29;20032;-81
2021/01/11 07:31:23;;;;;;;20.73;7.30;;;;;;;;;;4918506;29;20083;-84
2021/01/11 07:34:03;;;;;;;24.63;7.82;;;;;;;;;;4918148;29;20032;-80
2021/01/11 07:36:32;;;;;;;22.13;7.57;;;;;;;;;;4919344;29;20040;-79
2021/01/11 07:39:08;;;;;;;19.92;8.20;;;;;;;;;;4918076;29;20441;-80
2021/01/11 07:41:34;;;;;;;20.38;6.75;;;;;;;;;;4917222;29;20036;-81
2021/01/11 07:44:11;;;;;;;18.65;7.35;;;;;;;;;;4918240;29;20516;-79
2021/01/11 07:46:37;;;;;;;19.70;7.13;;;;;;;;;;4918054;29;20087;-82
2021/01/11 07:49:13;;;;;;;19.42;8.57;;;;;;;;;;4918041;29;20032;-80
2021/01/11 07:51:39;;;;;;;17.67;7.88;;;;;;;;;;4917782;29;20128;-80
2021/01/11 07:54:10;;;;;;;18.25;7.75;;;;;;;;;;4919068;29;20087;-80
2021/01/11 07:56:36;;;;;;;21.90;7.35;;;;;;;;;;4918946;29;20036;-80
2021/01/11 07:59:06;;;;;;;21.95;8.07;;;;;;;;;;4917831;29;20039;-81
2021/01/11 08:01:33;;;;;;;22.35;9.00;;;;;;;;;;4917646;29;20036;-80
2021/01/11 08:04:00;;;;;;;15.63;6.75;;;;;;;;;;4917578;29;20059;-79
2021/01/11 08:06:26;;;;;;;20.80;7.75;;;;;;;;;;4917510;29;20028;-81
2021/01/11 08:08:54;;;;;;;26.00;9.80;;;;;;;;;;4917479;29;20024;-82
2021/01/11 08:11:21;;;;;;;24.30;10.05;;;;;;;;;;4917455;29;20127;-81
2021/01/11 08:13:47;;;;;;;21.38;8.57;;;;;;;;;;4917600;29;20039;-79
2021/01/11 08:16:14;;;;;;;21.38;9.20;;;;;;;;;;4917322;29;20028;-81
2021/01/11 08:18:41;;;;;;;21.70;10.52;;;;;;;;;;4918615;29;20442;-81
2021/01/11 08:21:10;;;;;;;28.80;11.27;;;;;;;;;;4917996;29;20463;-81
2021/01/11 08:23:37;;;;;;;19.92;9.52;;;;;;;;;;4917108;29;20040;-81
2021/01/11 08:26:06;;;;;;;20.02;8.27;;;;;;;;;;4917126;29;20034;-81
2021/01/11 08:28:33;;;;;;;19.60;8.05;;;;;;;;;;4917210;29;20036;-82
2021/01/11 08:31:00;;;;;;;17.83;8.07;;;;;;;;;;4917154;29;20024;-81
2021/01/11 08:33:27;;;;;;;18.30;8.05;;;;;;;;;;4917242;29;20062;-81
2021/01/11 08:36:13;;;;;;;19.40;8.70;;;;;;;;;;4918680;29;20163;-81
2021/01/11 08:38:58;;;;;;;19.25;7.78;;;;;;;;;;4916928;29;20137;-81
2021/01/11 08:41:24;;;;;;;17.20;7.60;;;;;;;;;;4916838;29;20485;-81
2021/01/11 08:43:50;;;;;;;16.70;7.55;;;;;;;;;;4916791;29;20470;-81
2021/01/11 08:46:17;;;;;;;16.45;7.75;;;;;;;;;;4916781;29;20034;-81
2021/01/11 08:48:43;;;;;;;15.35;7.25;;;;;;;;;;4916903;29;20024;-82
2021/01/11 08:51:09;;;;;;;16.08;7.03;;;;;;;;;;4916846;29;20035;-82
2021/01/11 08:53:35;;;;;;;17.02;7.78;;;;;;;;;;4917954;29;20500;-81
2021/01/11 08:56:04;;;;;;;14.55;7.20;;;;;;;;;;4905586;29;20474;-80
2021/01/11 08:58:31;;;;;;;15.77;6.63;;;;;;;;;;4906773;29;20032;-82
2021/01/11 09:01:09;;;;;;;14.65;7.05;;;;;;;;;;4897867;29;20051;-81
2021/01/11 09:03:55;;;;;;;14.85;6.82;;;;;;;;;;4899244;29;20043;-82
2021/01/11 09:06:46;;;;;;;11.68;5.80;;;;;;;;;;4899161;29;20490;-81
2021/01/11 09:09:13;;;;;;;12.63;6.07;;;;;;;;;;4898131;29;20029;-82
2021/01/11 09:11:40;;;;;;;14.23;6.32;;;;;;;;;;4900104;29;20037;-81
2021/01/11 09:14:07;;;;;;;15.10;6.63;;;;;;;;;;4898490;29;20104;-81
2021/01/11 09:16:34;;;;;;;13.25;6.93;;;;;;;;;;4898993;29;20096;-81
2021/01/11 09:19:09;;;;;;;17.20;7.63;;;;;;;;;;4898603;29;20032;-82
2021/01/11 09:21:35;;;;;;;16.13;6.85;;;;;;;;;;4898748;29;20033;-82
2021/01/11 09:24:02;;;;;;;13.68;6.57;;;;;;;;;;4897315;29;20048;-84
2021/01/11 09:26:32;;;;;;;16.20;7.53;;;;;;;;;;4897118;29;20037;-82
2021/01/11 09:28:58;;;;;;;16.13;6.85;;;;;;;;;;4897555;29;20454;-82
2021/01/11 09:31:24;;;;;;;16.90;7.18;;;;;;;;;;4897234;29;20398;-82
2021/01/11 09:33:52;;;;;;;12.43;5.72;;;;;;;;;;4897966;29;20028;-81
2021/01/11 09:36:20;;;;;;;13.00;6.75;;;;;;;;;;4897111;29;20060;-82
2021/01/11 09:38:46;;;;;;;11.77;5.80;;;;;;;;;;4907519;29;20024;-83
2021/01/11 09:41:12;;;;;;;13.98;6.00;;;;;;;;;;4906052;29;20027;-83
2021/01/11 09:43:38;;;;;;;14.10;7.05;;;;;;;;;;4911345;29;20083;-82
2021/01/11 09:46:04;;;;;;;15.32;5.97;;;;;;;;;;4908687;29;20021;-81
2021/01/11 09:48:30;;;;;;;11.93;5.32;;;;;;;;;;4917237;29;20035;-81
2021/01/11 09:50:56;;;;;;;16.05;6.78;;;;;;;;;;4916910;29;20028;-81
2021/01/11 09:53:22;;;;;;;13.25;5.97;;;;;;;;;;4915912;29;20028;-80
2021/01/11 09:55:48;;;;;;;12.43;5.65;;;;;;;;;;4916897;29;20044;-81
2021/01/11 09:58:18;;;;;;;12.35;5.22;;;;;;;;;;4915758;29;20554;-83
2021/01/11 10:00:44;;;;;;;12.63;6.10;;;;;;;;;;4914127;29;20036;-81
2021/01/11 10:03:10;;;;;;;14.90;6.15;;;;;;;;;;4915750;29;20042;-87
2021/01/11 10:05:36;;;;;;;12.70;5.70;;;;;;;;;;4915667;29;20457;-87
2021/01/11 10:08:02;;;;;;;13.20;6.60;;;;;;;;;;4915654;29;20028;-86
2021/01/11 10:10:28;;;;;;;15.35;5.95;;;;;;;;;;4915790;29;20036;-84
2021/01/11 10:12:55;;;;;;;10.60;5.55;;;;;;;;;;4914240;29;20032;-85
2021/01/11 10:15:26;;;;;;;15.90;6.63;;;;;;;;;;4916618;29;20039;-85
2021/01/11 10:17:52;;;;;;;12.73;5.95;;;;;;;;;;4912064;29;20076;-80
2021/01/11 10:20:18;;;;;;;14.45;6.22;;;;;;;;;;4907302;29;20040;-85
2021/01/11 10:22:45;;;;;;;12.82;5.80;;;;;;;;;;4896814;29;20044;-84
2021/01/11 10:25:16;;;;;;;15.27;5.95;;;;;;;;;;4896703;29;20037;-84
2021/01/11 10:27:43;;;;;;;16.75;7.07;;;;;;;;;;4896925;29;20555;-87
2021/01/11 10:30:23;;;;;;;13.18;5.15;;;;;;;;;;4902151;29;20032;-80
2021/01/11 10:32:50;;;;;;;12.50;5.45;;;;;;;;;;4903943;29;20565;-80
2021/01/11 10:35:16;;;;;;;13.95;5.63;;;;;;;;;;4896958;29;20029;-84
2021/01/11 10:37:42;;;;;;;15.32;4.57;;;;;;;;;;4906109;29;20032;-82
2021/01/11 10:40:11;;;;;;;14.82;5.50;;;;;;;;;;4912008;29;20040;-83
2021/01/11 10:42:37;;;;;;;14.93;6.03;;;;;;;;;;4896031;29;20060;-84
2021/01/11 10:45:03;;;;;;;12.05;4.93;;;;;;;;;;4900496;29;20032;-84
2021/01/11 10:47:30;;;;;;;17.00;6.25;;;;;;;;;;4900248;29;20028;-83
2021/01/11 10:49:56;;;;;;;16.02;6.80;;;;;;;;;;4900120;29;20056;-84
2021/01/11 10:52:22;;;;;;;18.40;6.45;;;;;;;;;;4901426;29;20083;-83
2021/01/11 10:54:48;;;;;;;11.35;5.63;;;;;;;;;;4901395;29;20509;-86
2021/01/11 10:57:14;;;;;;;17.23;5.80;;;;;;;;;;4905964;29;20032;-85
2021/01/11 10:59:40;;;;;;;16.15;6.32;;;;;;;;;;4900632;29;20119;-84
2021/01/11 11:02:07;;;;;;;12.60;5.95;;;;;;;;;;4899878;29;20040;-83
2021/01/11 11:04:34;;;;;;;14.02;5.75;;;;;;;;;;4899969;29;20530;-83
2021/01/11 11:07:00;;;;;;;13.45;5.47;;;;;;;;;;4900931;29;20107;-83
2021/01/11 11:09:27;;;;;;;11.93;5.32;;;;;;;;;;4899839;29;20057;-82
2021/01/11 11:11:53;;;;;;;14.32;5.65;;;;;;;;;;4899794;29;20495;-81
2021/01/11 11:14:19;;;;;;;14.10;6.13;;;;;;;;;;4899616;29;20063;-83
2021/01/11 11:16:45;;;;;;;15.07;5.82;;;;;;;;;;4899550;29;20040;-85
2021/01/11 11:19:13;;;;;;;14.55;5.35;;;;;;;;;;4908214;29;20028;-83
2021/01/11 11:21:40;;;;;;;21.70;5.75;;;;;;;;;;4907559;29;20035;-82
2021/01/11 11:24:15;;;;;;;16.40;5.78;;;;;;;;;;4914164;29;20064;-82
2021/01/11 11:26:41;;;;;;;15.73;5.90;;;;;;;;;;4900592;29;20044;-84
2021/01/11 11:29:07;;;;;;;13.57;5.70;;;;;;;;;;4901139;29;20060;-82
2021/01/11 11:31:37;;;;;;;16.05;5.75;;;;;;;;;;4899258;29;20029;-82
2021/01/11 11:34:03;;;;;;;14.07;4.72;;;;;;;;;;4899701;29;20402;-81
2021/01/11 11:36:29;;;;;;;15.32;5.82;;;;;;;;;;4899482;29;20029;-85
2021/01/11 11:38:55;;;;;;;17.38;5.38;;;;;;;;;;4899621;29;20490;-83
2021/01/11 11:41:21;;;;;;;11.75;4.53;;;;;;;;;;4899320;29;20028;-83
2021/01/11 11:43:47;;;;;;;11.43;4.68;;;;;;;;;;4898883;29;20063;-83
2021/01/11 11:46:14;;;;;;;15.00;5.43;;;;;;;;;;4899370;29;20028;-82
2021/01/11 11:48:40;;;;;;;21.33;5.35;;;;;;;;;;4898966;29;20039;-84
2021/01/11 11:51:06;;;;;;;15.55;5.00;;;;;;;;;;4900354;29;20108;-83
2021/01/11 11:53:32;;;;;;;15.85;5.15;;;;;;;;;;4899280;29;20041;-82
2021/01/11 11:55:58;;;;;;;14.90;5.70;;;;;;;;;;4898185;29;20031;-83
2021/01/11 11:58:24;;;;;;;13.48;5.40;;;;;;;;;;4898725;29;20108;-86
2021/01/11 12:00:50;;;;;;;21.17;5.65;;;;;;;;;;4899526;29;20035;-86
2021/01/11 12:03:17;;;;;;;12.20;4.78;;;;;;;;;;4900457;29;20040;-85
2021/01/11 12:05:43;;;;;;;14.40;4.95;;;;;;;;;;4899324;29;20455;-87
2021/01/11 12:08:09;;;;;;;15.75;6.07;;;;;;;;;;4900420;29;20031;-85
2021/01/11 12:10:35;;;;;;;14.98;5.65;;;;;;;;;;4899136;29;20039;-86
2021/01/11 12:13:01;;;;;;;13.80;5.15;;;;;;;;;;4904272;29;20024;-87
2021/01/11 12:15:27;;;;;;;16.05;5.03;;;;;;;;;;4907059;29;20061;-88
2021/01/11 12:17:53;;;;;;;12.57;4.53;;;;;;;;;;4917269;29;20103;-88
2021/01/11 12:20:19;;;;;;;14.43;5.32;;;;;;;;;;4917402;29;20024;-88
2021/01/11 12:22:46;;;;;;;16.15;5.70;;;;;;;;;;4918188;29;20040;-85
2021/01/11 12:25:12;;;;;;;10.30;4.13;;;;;;;;;;4918268;29;20024;-83
2021/01/11 12:27:38;;;;;;;14.05;4.50;;;;;;;;;;4918788;29;20032;-89
2021/01/11 12:30:05;;;;;;;17.15;5.53;;;;;;;;;;4920594;29;20039;-86
2021/01/11 12:32:31;;;;;;;19.27;5.93;;;;;;;;;;4917116;29;20035;-84
2021/01/11 12:34:57;;;;;;;15.65;5.90;;;;;;;;;;4916252;29;20160;-86
2021/01/11 12:37:24;;;;;;;13.05;4.40;;;;;;;;;;4913896;29;20493;-84
2021/01/11 12:39:50;;;;;;;19.58;6.22;;;;;;;;;;4899876;29;20478;-84
2021/01/11 12:42:16;;;;;;;13.02;4.57;;;;;;;;;;4897637;29;20056;-84
2021/01/11 12:44:42;;;;;;;16.90;5.45;;;;;;;;;;4898233;29;20088;-88
2021/01/11 12:47:09;;;;;;;13.20;4.97;;;;;;;;;;4899107;29;20508;-84
2021/01/11 12:49:39;;;;;;;15.43;4.65;;;;;;;;;;4898290;29;20050;-85
2021/01/11 12:52:05;;;;;;;14.73;4.40;;;;;;;;;;4899192;29;20048;-83
2021/01/11 12:54:31;;;;;;;18.45;6.25;;;;;;;;;;4898984;29;20076;-84
2021/01/11 12:56:58;;;;;;;16.85;5.43;;;;;;;;;;4899145;29;20490;-86
2021/01/11 12:59:24;;;;;;;15.43;4.95;;;;;;;;;;4897916;29;20029;-83
2021/01/11 13:01:53;;;;;;;12.95;5.25;;;;;;;;;;4898544;29;20072;-84
2021/01/11 13:04:19;;;;;;;14.48;4.95;;;;;;;;;;4899523;29;20033;-83
2021/01/11 13:06:47;;;;;;;14.32;5.07;;;;;;;;;;4898610;29;20032;-86
2021/01/11 13:09:13;;;;;;;15.15;4.88;;;;;;;;;;4917657;29;20110;-83
2021/01/11 13:11:41;;;;;;;22.83;6.60;;;;;;;;;;4918398;29;20059;-84
2021/01/11 13:14:07;;;;;;;14.63;5.07;;;;;;;;;;4918468;29;20020;-83
2021/01/11 13:16:35;;;;;;;16.40;5.60;;;;;;;;;;4917314;29;20040;-84
2021/01/11 13:19:03;;;;;;;16.95;5.88;;;;;;;;;;4917054;29;20179;-83
2021/01/11 13:21:29;;;;;;;19.15;4.63;;;;;;;;;;4916808;29;20394;-82
2021/01/11 13:23:56;;;;;;;14.98;5.57;;;;;;;;;;4916243;29;20494;-83
2021/01/11 13:26:22;;;;;;;14.73;4.82;;;;;;;;;;4917904;29;20553;-83
2021/01/11 13:28:48;;;;;;;17.13;5.35;;;;;;;;;;4917333;29;20028;-83
2021/01/11 13:31:15;;;;;;;16.13;5.95;;;;;;;;;;4917947;29;20036;-87
2021/01/11 13:33:42;;;;;;;15.80;4.88;;;;;;;;;;4916450;29;20122;-88
2021/01/11 13:36:08;;;;;;;16.35;5.88;;;;;;;;;;4917116;29;20370;-84
2021/01/11 13:38:34;;;;;;;14.27;5.65;;;;;;;;;;4913588;29;20029;-89
2021/01/11 13:41:00;;;;;;;15.77;5.07;;;;;;;;;;4898052;29;20439;-84
2021/01/11 13:43:27;;;;;;;13.07;4.68;;;;;;;;;;4897074;29;20100;-83
2021/01/11 13:45:53;;;;;;;13.02;5.13;;;;;;;;;;4897686;29;20039;-83
2021/01/11 13:48:19;;;;;;;15.13;6.10;;;;;;;;;;4897105;29;20035;-85
2021/01/11 13:50:45;;;;;;;18.30;5.38;;;;;;;;;;4904784;29;20067;-88
2021/01/11 13:53:12;;;;;;;12.57;4.43;;;;;;;;;;4916732;29;20039;-84
2021/01/11 13:55:38;;;;;;;13.02;5.75;;;;;;;;;;4912887;29;20028;-83
2021/01/11 13:58:04;;;;;;;18.13;5.70;;;;;;;;;;4915803;29;20032;-82
2021/01/11 14:00:30;;;;;;;13.57;4.80;;;;;;;;;;4917108;29;20441;-83
2021/01/11 14:02:56;;;;;;;14.38;5.40;;;;;;;;;;4924626;29;20036;-84
2021/01/11 14:05:24;;;;;;;18.58;6.07;;;;;;;;;;4924545;29;20024;-84
2021/01/11 14:07:50;;;;;;;17.35;5.40;;;;;;;;;;4916406;29;20038;-83
2021/01/11 14:10:16;;;;;;;18.95;5.47;;;;;;;;;;4915278;29;20379;-83
2021/01/11 14:12:42;;;;;;;16.88;5.53;;;;;;;;;;4917311;29;20477;-83
2021/01/11 14:15:10;;;;;;;18.00;6.10;;;;;;;;;;4916904;29;20427;-83
2021/01/11 14:17:36;;;;;;;19.40;5.53;;;;;;;;;;4916557;29;20469;-84
2021/01/11 14:20:04;;;;;;;110.10;40.85;;;;;;;;;;4915857;29;20025;-83
2021/01/11 14:22:30;;;;;;;22.23;6.50;;;;;;;;;;4916032;29;20036;-82
2021/01/11 14:24:56;;;;;;;37.88;14.13;;;;;;;;;;4917187;29;20067;-85
2021/01/11 14:27:22;;;;;;;53.95;20.00;;;;;;;;;;4916823;29;20488;-82
2021/01/11 14:29:48;;;;;;;13.82;5.95;;;;;;;;;;4915538;29;20040;-82
2021/01/11 14:32:15;;;;;;;64.10;25.60;;;;;;;;;;4915234;29;20087;-81